Time;durP1;ratioP1;P1;durP2;ratioP2;P2;SDS_P1;SDS_P2;PMS_P1;PMS_P2;Temp;Humidity;BMP_temperature;BMP_pressure;BME280_temperature;BME280_humidity;BME280_pressure;Samples;Min_cycle;Max_cycle;Signal;HPM_P1;HPM_P2
2021/04/10 00:01:05;;;;;;;6.50;4.03;;;13.80;66.20;;;;;;4983499;28;20213;-70
2021/04/10 00:03:31;;;;;;;3.80;3.50;;;13.90;67.20;;;;;;4980290;28;20253;-74
2021/04/10 00:05:57;;;;;;;3.80;3.17;;;13.80;68.40;;;;;;4983387;28;20448;-74
2021/04/10 00:08:22;;;;;;;5.97;3.10;;;13.70;70.70;;;;;;4971316;28;20216;-71
2021/04/10 00:10:48;;;;;;;5.10;3.47;;;13.70;71.60;;;;;;4980605;28;20276;-71
2021/04/10 00:13:14;;;;;;;3.73;3.43;;;13.80;71.70;;;;;;4980054;28;20248;-71
2021/04/10 00:15:39;;;;;;;3.93;3.63;;;13.70;72.80;;;;;;4985114;28;20206;-73
2021/04/10 00:18:05;;;;;;;4.57;3.40;;;13.70;73.30;;;;;;4978602;28;20221;-71
2021/04/10 00:20:30;;;;;;;3.43;3.23;;;13.70;73.60;;;;;;4981520;28;20791;-70
2021/04/10 00:22:56;;;;;;;3.73;3.40;;;13.70;73.00;;;;;;4985777;28;20231;-72
2021/04/10 00:25:22;;;;;;;4.47;3.57;;;13.70;73.70;;;;;;4984989;28;20565;-73
2021/04/10 00:27:48;;;;;;;3.80;3.40;;;13.70;74.50;;;;;;4983618;28;20737;-71
2021/04/10 00:30:16;;;;;;;3.40;3.10;;;13.70;73.90;;;;;;4975225;28;20210;-74
2021/04/10 00:32:42;;;;;;;4.40;3.30;;;13.70;73.90;;;;;;4982282;28;21261;-70
2021/04/10 00:35:08;;;;;;;4.00;3.73;;;13.70;73.70;;;;;;4985460;28;20455;-70
2021/04/10 00:37:37;;;;;;;4.90;3.53;;;13.80;74.10;;;;;;4983667;28;20445;-72
2021/04/10 00:40:05;;;;;;;4.83;3.50;;;13.90;73.80;;;;;;4981836;28;20460;-71
2021/04/10 00:42:30;;;;;;;8.10;3.77;;;13.80;74.40;;;;;;4975920;28;20492;-70
2021/04/10 00:44:56;;;;;;;5.50;3.37;;;13.80;75.50;;;;;;4978887;28;20507;-72
2021/04/10 00:47:22;;;;;;;5.77;3.63;;;13.80;76.50;;;;;;4985962;28;20671;-73
2021/04/10 00:49:47;;;;;;;3.60;3.30;;;13.80;76.40;;;;;;4982678;28;20297;-73
2021/04/10 00:52:15;;;;;;;7.03;3.97;;;13.80;79.20;;;;;;4979055;28;20240;-71
2021/04/10 00:54:41;;;;;;;6.97;3.87;;;13.80;79.10;;;;;;4986206;28;20292;-73
2021/04/10 00:57:07;;;;;;;3.77;3.57;;;13.70;81.10;;;;;;4982936;28;20440;-74
2021/04/10 00:59:32;;;;;;;3.40;3.20;;;13.60;82.90;;;;;;4983255;28;20476;-72
2021/04/10 01:02:00;;;;;;;4.27;3.40;;;13.60;84.70;;;;;;4986297;28;21289;-71
2021/04/10 01:04:26;;;;;;;5.57;3.50;;;13.50;84.70;;;;;;4984692;28;20217;-73
2021/04/10 01:06:52;;;;;;;3.23;3.03;;;13.50;86.50;;;;;;4988158;28;21158;-69
2021/04/10 01:09:17;;;;;;;3.30;3.00;;;13.30;88.30;;;;;;4983638;28;20221;-74
2021/04/10 01:12:02;;;;;;;4.80;3.23;;;13.30;91.00;;;;;;4974554;28;20252;-73
2021/04/10 01:14:36;;;;;;;3.10;2.90;;;13.30;93.40;;;;;;4983626;28;20182;-74
2021/04/10 01:17:11;;;;;;;6.83;3.67;;;13.20;96.80;;;;;;4984665;28;21201;-73
2021/04/10 01:20:04;;;;;;;3.60;3.27;;;13.20;99.90;;;;;;4982886;28;21172;-73
2021/04/10 01:22:52;;;;;;;4.53;3.30;;;13.10;99.90;;;;;;4970688;28;20530;-71
2021/04/10 01:25:30;;;;;;;3.70;3.20;;;13.00;99.90;;;;;;4983756;28;20444;-73
2021/04/10 01:27:58;;;;;;;3.87;3.40;;;12.90;99.90;;;;;;4983647;28;20439;-72
2021/04/10 01:30:26;;;;;;;3.83;3.37;;;12.70;99.90;;;;;;4982329;28;20528;-73
2021/04/10 01:33:14;;;;;;;3.73;3.20;;;12.70;99.90;;;;;;4985769;28;20436;-72
2021/04/10 01:35:43;;;;;;;5.30;3.27;;;12.60;99.90;;;;;;4975305;28;20461;-72
2021/04/10 01:38:15;;;;;;;3.50;3.20;;;12.50;99.90;;;;;;4984121;28;20484;-73
2021/04/10 01:40:42;;;;;;;3.60;3.30;;;12.50;99.90;;;;;;4985424;28;20974;-72
2021/04/10 01:43:08;;;;;;;5.30;3.00;;;12.40;99.90;;;;;;4981270;28;20476;-73
2021/04/10 01:45:35;;;;;;;3.33;3.03;;;12.40;99.90;;;;;;4977903;28;20462;-74
2021/04/10 01:48:07;;;;;;;3.33;3.03;;;12.40;99.90;;;;;;4980083;28;20453;-70
2021/04/10 01:50:35;;;;;;;3.63;3.33;;;12.40;99.90;;;;;;4981581;28;20524;-73
2021/04/10 01:53:01;;;;;;;3.33;3.03;;;12.40;99.90;;;;;;4987658;28;20425;-73
2021/04/10 01:55:28;;;;;;;3.20;3.00;;;12.40;99.90;;;;;;4981571;28;20470;-72
2021/04/10 01:57:54;;;;;;;3.37;3.07;;;12.40;99.90;;;;;;4987290;28;20438;-70
2021/04/10 02:00:23;;;;;;;3.80;2.77;;;12.50;99.90;;;;;;4973993;28;20480;-73
2021/04/10 02:02:49;;;;;;;6.70;3.30;;;12.50;99.90;;;;;;4981748;28;20453;-69
2021/04/10 02:05:16;;;;;;;4.20;3.47;;;12.50;99.90;;;;;;4981567;28;20433;-72
2021/04/10 02:07:47;;;;;;;3.10;2.90;;;12.60;99.90;;;;;;4982098;28;20528;-70
2021/04/10 02:10:15;;;;;;;3.93;3.17;;;12.50;99.90;;;;;;4983888;28;20545;-74
2021/04/10 02:12:44;;;;;;;3.00;2.80;;;12.50;99.90;;;;;;4966475;28;20469;-73
2021/04/10 02:15:12;;;;;;;3.40;3.20;;;12.70;99.90;;;;;;4988420;28;20436;-74
2021/04/10 02:17:38;;;;;;;3.67;3.37;;;12.60;99.90;;;;;;4983789;28;20990;-74
2021/04/10 02:20:11;;;;;;;3.53;2.90;;;12.60;99.90;;;;;;4983035;28;20486;-69
2021/04/10 02:22:43;;;;;;;4.50;3.70;;;12.60;99.90;;;;;;4983741;28;20473;-73
2021/04/10 02:25:10;;;;;;;3.73;2.90;;;12.70;99.90;;;;;;4974755;28;20452;-73
2021/04/10 02:27:35;;;;;;;4.57;3.17;;;12.70;99.90;;;;;;4982778;28;20548;-70
2021/04/10 02:30:03;;;;;;;3.80;3.10;;;12.70;99.90;;;;;;4982556;28;20457;-71
2021/04/10 02:32:55;;;;;;;4.00;3.30;;;12.60;99.90;;;;;;4983220;28;20221;-73
2021/04/10 02:35:35;;;;;;;4.00;2.93;;;12.70;99.90;;;;;;4985197;28;20424;-71
2021/04/10 02:38:01;;;;;;;3.23;3.00;;;12.70;99.90;;;;;;4970434;28;20527;-70
2021/04/10 02:40:39;;;;;;;3.57;3.27;;;12.70;99.90;;;;;;4983857;28;20845;-72
2021/04/10 02:43:10;;;;;;;4.70;3.53;;;12.80;99.90;;;;;;4983941;28;20499;-71
2021/04/10 02:45:37;;;;;;;5.30;2.80;;;12.80;99.90;;;;;;4982571;28;20429;-72
2021/04/10 02:48:20;;;;;;;8.77;3.20;;;12.80;99.90;;;;;;4983366;28;20506;-72
2021/04/10 02:50:47;;;;;;;4.03;3.10;;;12.70;99.90;;;;;;4970210;28;20476;-73
2021/04/10 02:53:13;;;;;;;3.93;3.47;;;12.70;99.90;;;;;;4985135;28;20430;-73
2021/04/10 02:55:46;;;;;;;3.63;3.30;;;12.70;99.90;;;;;;4982721;28;21096;-72
2021/04/10 02:58:13;;;;;;;6.13;3.20;;;12.60;99.90;;;;;;4981387;28;20807;-70
2021/04/10 03:00:42;;;;;;;4.03;3.33;;;12.60;99.90;;;;;;4983641;28;20476;-72
2021/04/10 03:03:11;;;;;;;3.10;2.90;;;12.50;99.90;;;;;;4968228;28;21396;-72
2021/04/10 03:05:38;;;;;;;3.80;3.13;;;12.50;99.90;;;;;;4981565;28;20997;-70
2021/04/10 03:08:06;;;;;;;4.10;3.33;;;12.40;99.90;;;;;;4982581;28;20518;-71
2021/04/10 03:10:32;;;;;;;3.10;2.83;;;12.40;99.90;;;;;;4978283;28;20449;-72
2021/04/10 03:13:00;;;;;;;4.23;2.77;;;12.40;99.90;;;;;;4982445;28;20520;-71
2021/04/10 03:15:25;;;;;;;4.07;3.00;;;12.30;99.90;;;;;;4976881;28;20607;-71
2021/04/10 03:17:52;;;;;;;4.03;3.73;;;12.30;99.90;;;;;;4975369;28;20468;-72
2021/04/10 03:20:20;;;;;;;3.20;2.90;;;12.30;99.90;;;;;;4976469;28;20457;-73
2021/04/10 03:22:48;;;;;;;4.10;3.40;;;12.20;99.90;;;;;;4981344;28;20456;-70
2021/04/10 03:25:15;;;;;;;3.30;2.93;;;12.20;99.90;;;;;;4979163;28;20439;-71
2021/04/10 03:27:42;;;;;;;2.90;2.70;;;12.10;99.90;;;;;;4977669;28;20519;-72
2021/04/10 03:30:10;;;;;;;5.07;3.37;;;12.10;99.90;;;;;;4973717;28;21267;-68
2021/04/10 03:32:37;;;;;;;3.30;3.10;;;12.20;99.90;;;;;;4984192;28;20466;-70
2021/04/10 03:35:04;;;;;;;3.30;3.00;;;12.20;99.90;;;;;;4980762;28;20448;-71
2021/04/10 03:37:31;;;;;;;3.17;2.93;;;12.20;99.90;;;;;;4978432;28;21409;-72
2021/04/10 03:39:57;;;;;;;3.60;2.90;;;12.10;99.90;;;;;;4971084;28;20460;-71
2021/04/10 03:42:38;;;;;;;4.90;2.90;;;12.10;99.90;;;;;;4981924;28;20527;-71
2021/04/10 03:45:09;;;;;;;3.30;3.00;;;12.10;99.90;;;;;;4981667;28;20429;-73
2021/04/10 03:47:35;;;;;;;3.00;2.77;;;12.10;99.90;;;;;;4978538;28;20438;-73
2021/04/10 03:50:01;;;;;;;3.50;3.13;;;12.00;99.90;;;;;;4970381;28;20444;-74
2021/04/10 03:52:26;;;;;;;2.90;2.70;;;12.00;99.90;;;;;;4981206;28;20225;-72
2021/04/10 03:54:52;;;;;;;3.23;2.70;;;11.90;99.90;;;;;;4983179;28;21135;-70
2021/04/10 03:57:18;;;;;;;5.83;2.93;;;12.00;99.90;;;;;;4982217;28;20193;-73
2021/04/10 03:59:43;;;;;;;3.17;2.90;;;12.10;99.90;;;;;;4979976;28;20225;-74
2021/04/10 04:02:10;;;;;;;3.93;3.07;;;12.10;99.90;;;;;;4979405;28;20293;-73
2021/04/10 04:04:35;;;;;;;4.07;3.07;;;12.10;99.90;;;;;;4962938;28;20220;-73
2021/04/10 04:07:02;;;;;;;3.30;3.00;;;12.10;99.90;;;;;;4983892;28;20417;-73
2021/04/10 04:09:28;;;;;;;3.20;2.67;;;12.10;99.90;;;;;;4982147;28;20612;-74
2021/04/10 04:11:54;;;;;;;2.90;2.70;;;12.10;99.90;;;;;;4980444;28;20473;-74
2021/04/10 04:14:20;;;;;;;4.70;3.23;;;12.00;99.90;;;;;;4978595;28;20209;-71
2021/04/10 04:16:45;;;;;;;2.80;2.60;;;12.00;99.90;;;;;;4978228;28;20192;-71
2021/04/10 04:19:11;;;;;;;7.00;2.77;;;12.00;99.90;;;;;;4973412;28;20472;-73
2021/04/10 04:21:36;;;;;;;3.07;2.87;;;12.00;99.90;;;;;;4981482;28;20213;-73
2021/04/10 04:24:03;;;;;;;3.70;3.40;;;11.90;99.90;;;;;;4978746;28;20273;-72
2021/04/10 04:26:28;;;;;;;3.20;2.90;;;11.90;99.90;;;;;;4977119;28;20198;-73
2021/04/10 04:28:54;;;;;;;3.37;3.07;;;11.90;99.90;;;;;;4969465;28;20463;-68
2021/04/10 04:31:20;;;;;;;2.80;2.60;;;11.90;99.90;;;;;;4980077;28;20202;-73
2021/04/10 04:33:47;;;;;;;3.10;2.80;;;11.80;99.90;;;;;;4979497;28;20197;-72
2021/04/10 04:36:13;;;;;;;3.30;2.90;;;11.80;99.90;;;;;;4982467;28;20421;-73
2021/04/10 04:38:38;;;;;;;4.37;3.30;;;11.80;99.90;;;;;;4979989;28;20429;-72
2021/04/10 04:41:04;;;;;;;6.43;2.80;;;11.80;99.90;;;;;;4964804;28;20468;-72
2021/04/10 04:43:30;;;;;;;3.10;2.70;;;11.80;99.90;;;;;;4981497;28;20200;-69
2021/04/10 04:45:55;;;;;;;3.23;2.87;;;11.80;99.90;;;;;;4982777;28;20198;-72
2021/04/10 04:48:21;;;;;;;7.03;3.07;;;11.70;99.90;;;;;;4981762;28;20189;-73
2021/04/10 04:50:47;;;;;;;3.13;2.93;;;11.80;99.90;;;;;;4976156;28;20231;-73
2021/04/10 04:53:12;;;;;;;3.63;3.00;;;11.70;99.90;;;;;;4978817;28;20232;-70
2021/04/10 04:55:38;;;;;;;2.90;2.70;;;11.80;99.90;;;;;;4972092;28;20206;-72
2021/04/10 04:58:03;;;;;;;2.70;2.47;;;11.70;99.90;;;;;;4980648;28;20198;-72
2021/04/10 05:00:29;;;;;;;3.90;2.90;;;11.70;99.90;;;;;;4980724;28;20267;-72
2021/04/10 05:02:55;;;;;;;3.43;2.73;;;11.70;99.90;;;;;;4973614;28;20212;-73
2021/04/10 05:05:20;;;;;;;3.70;3.17;;;11.70;99.90;;;;;;4984698;28;20549;-71
2021/04/10 05:07:46;;;;;;;3.07;2.80;;;11.70;99.90;;;;;;4984742;28;21144;-72
2021/04/10 05:10:12;;;;;;;2.87;2.67;;;11.60;99.90;;;;;;4982417;28;20281;-70
2021/04/10 05:12:37;;;;;;;2.90;2.70;;;11.70;99.90;;;;;;4976399;28;20212;-73
2021/04/10 05:15:05;;;;;;;3.10;2.90;;;11.70;99.90;;;;;;4985267;28;20221;-71
2021/04/10 05:17:31;;;;;;;5.23;3.10;;;11.70;99.90;;;;;;4984927;28;20182;-74
2021/04/10 05:19:56;;;;;;;3.27;3.07;;;11.70;99.90;;;;;;4983038;28;20885;-71
2021/04/10 05:22:22;;;;;;;3.60;2.50;;;11.70;99.90;;;;;;4984788;28;20225;-70
2021/04/10 05:24:47;;;;;;;3.00;2.73;;;11.70;99.90;;;;;;4981873;28;20716;-73
2021/04/10 05:27:13;;;;;;;2.80;2.60;;;11.80;99.90;;;;;;4975715;28;20260;-72
2021/04/10 05:29:38;;;;;;;3.60;2.60;;;11.70;99.90;;;;;;4983571;28;20198;-72
2021/04/10 05:32:05;;;;;;;3.07;2.33;;;11.70;99.90;;;;;;4984380;28;20228;-73
2021/04/10 05:34:30;;;;;;;8.70;3.20;;;11.80;99.90;;;;;;4984356;28;20225;-74
2021/04/10 05:36:56;;;;;;;3.43;3.10;;;11.80;99.90;;;;;;4976876;28;20514;-69
2021/04/10 05:39:21;;;;;;;3.47;2.77;;;11.90;99.90;;;;;;4977217;28;20221;-73
2021/04/10 05:41:47;;;;;;;4.80;3.30;;;11.80;99.90;;;;;;4982348;28;20222;-74
2021/04/10 05:44:13;;;;;;;4.20;2.80;;;11.90;99.90;;;;;;4984218;28;20660;-72
2021/04/10 05:46:38;;;;;;;2.93;2.73;;;11.80;99.90;;;;;;4985680;28;20276;-72
2021/04/10 05:49:04;;;;;;;3.23;3.03;;;11.80;99.90;;;;;;4975812;28;20217;-72
2021/04/10 05:51:29;;;;;;;3.17;2.53;;;11.80;99.90;;;;;;4978079;28;20232;-72
2021/04/10 05:53:55;;;;;;;4.40;3.07;;;11.80;99.90;;;;;;4983145;28;20200;-73
2021/04/10 05:56:21;;;;;;;3.17;2.90;;;11.70;99.90;;;;;;4983956;28;20554;-71
2021/04/10 05:58:46;;;;;;;3.77;3.37;;;11.70;99.90;;;;;;4981709;28;20228;-69
2021/04/10 06:01:12;;;;;;;3.00;2.80;;;11.70;99.90;;;;;;4976245;28;20217;-73
2021/04/10 06:03:38;;;;;;;2.87;2.67;;;11.70;99.90;;;;;;4974106;28;20217;-71
2021/04/10 06:06:03;;;;;;;4.00;3.60;;;11.80;99.90;;;;;;4985563;28;20276;-72
2021/04/10 06:08:29;;;;;;;3.10;2.80;;;11.80;99.90;;;;;;4981624;28;20696;-70
2021/04/10 06:10:55;;;;;;;4.17;2.87;;;11.80;99.90;;;;;;4984359;28;20217;-71
2021/04/10 06:13:20;;;;;;;3.67;2.80;;;11.90;99.90;;;;;;4985071;28;20513;-72
2021/04/10 06:15:46;;;;;;;3.53;2.93;;;11.90;99.90;;;;;;4975764;28;20214;-73
2021/04/10 06:18:12;;;;;;;3.40;2.63;;;11.80;99.90;;;;;;4982285;28;20289;-69
2021/04/10 06:20:38;;;;;;;3.00;2.80;;;11.80;99.90;;;;;;4983143;28;21273;-70
2021/04/10 06:23:04;;;;;;;4.20;3.27;;;11.80;99.90;;;;;;4983241;28;20198;-73
2021/04/10 06:25:30;;;;;;;4.90;2.83;;;11.80;99.90;;;;;;4983421;28;20619;-72
2021/04/10 06:27:56;;;;;;;3.13;2.83;;;11.90;99.90;;;;;;4976655;28;20443;-73
2021/04/10 06:30:22;;;;;;;2.93;2.70;;;11.90;99.90;;;;;;4981322;28;21153;-70
2021/04/10 06:32:47;;;;;;;3.23;2.93;;;11.90;99.90;;;;;;4983564;28;20451;-70
2021/04/10 06:35:13;;;;;;;3.93;3.53;;;12.00;99.90;;;;;;4982144;28;21251;-73
2021/04/10 06:37:39;;;;;;;3.70;3.40;;;12.00;99.90;;;;;;4981636;28;20232;-74
2021/04/10 06:40:06;;;;;;;3.20;2.90;;;11.90;99.90;;;;;;4971983;28;20227;-73
2021/04/10 06:42:33;;;;;;;3.23;2.90;;;11.90;99.90;;;;;;4981576;28;20245;-74
2021/04/10 06:44:59;;;;;;;4.23;3.10;;;11.90;99.90;;;;;;4982456;28;20438;-72
2021/04/10 06:47:29;;;;;;;2.83;2.60;;;11.90;99.90;;;;;;4978966;28;20433;-74
2021/04/10 06:49:55;;;;;;;2.97;2.77;;;11.90;99.90;;;;;;4973512;28;20821;-72
2021/04/10 06:52:21;;;;;;;2.97;2.77;;;11.80;99.90;;;;;;4980420;28;20484;-72
2021/04/10 06:54:56;;;;;;;3.10;2.80;;;11.90;99.90;;;;;;4984515;28;20190;-71
2021/04/10 06:57:24;;;;;;;3.50;3.20;;;11.90;99.90;;;;;;4980370;28;20424;-71
2021/04/10 06:59:59;;;;;;;3.80;3.00;;;11.80;99.90;;;;;;4982152;28;20474;-74
2021/04/10 07:02:26;;;;;;;3.43;3.13;;;11.80;99.90;;;;;;4968617;28;20451;-73
2021/04/10 07:04:54;;;;;;;3.40;3.10;;;11.70;99.90;;;;;;4980982;28;20503;-71
2021/04/10 07:07:21;;;;;;;3.50;3.20;;;11.80;99.90;;;;;;4983425;28;20457;-70
2021/04/10 07:09:47;;;;;;;3.10;2.90;;;11.80;99.90;;;;;;4982169;28;20467;-73
2021/04/10 07:12:12;;;;;;;3.10;2.90;;;11.80;99.90;;;;;;4979717;28;20468;-74
2021/04/10 07:14:38;;;;;;;3.73;3.13;;;11.70;99.90;;;;;;4970615;28;20229;-72
2021/04/10 07:17:04;;;;;;;2.90;2.70;;;11.70;99.90;;;;;;4980856;28;20658;-73
2021/04/10 07:19:30;;;;;;;3.13;2.90;;;11.70;99.90;;;;;;4982742;28;20225;-72
2021/04/10 07:22:03;;;;;;;3.50;2.90;;;11.80;99.90;;;;;;4981107;28;20485;-69
2021/04/10 07:24:50;;;;;;;4.20;3.07;;;11.70;99.90;;;;;;4976464;28;20437;-72
2021/04/10 07:27:24;;;;;;;3.03;2.83;;;11.70;99.90;;;;;;4977350;28;20453;-72
2021/04/10 07:29:58;;;;;;;4.30;2.90;;;11.70;99.90;;;;;;4979346;28;20433;-74
2021/04/10 07:32:33;;;;;;;3.40;3.17;;;11.80;99.90;;;;;;4979290;28;20461;-73
2021/04/10 07:35:10;;;;;;;3.97;3.50;;;11.70;99.90;;;;;;4982669;28;20459;-73
2021/04/10 07:37:47;;;;;;;3.80;3.03;;;11.70;99.90;;;;;;4981829;28;20544;-70
2021/04/10 07:40:33;;;;;;;3.20;3.00;;;11.70;99.90;;;;;;4996541;28;22391;-72
2021/04/10 07:43:02;;;;;;;3.33;3.03;;;11.80;99.90;;;;;;4981856;28;20464;-73
2021/04/10 07:45:33;;;;;;;3.57;3.07;;;11.80;99.90;;;;;;4980288;28;21000;-70
2021/04/10 07:48:10;;;;;;;3.47;2.90;;;11.70;99.90;;;;;;4972030;28;20552;-74
2021/04/10 07:50:36;;;;;;;3.77;3.20;;;11.80;99.90;;;;;;4977426;28;20457;-72
2021/04/10 07:53:25;;;;;;;3.00;2.80;;;11.80;99.90;;;;;;4979780;28;21014;-70
2021/04/10 07:55:52;;;;;;;3.50;3.30;;;11.80;99.90;;;;;;4981166;28;20429;-73
2021/04/10 07:58:37;;;;;;;3.60;3.30;;;11.80;99.90;;;;;;4973579;28;20452;-74
2021/04/10 08:01:10;;;;;;;3.27;2.97;;;11.90;99.90;;;;;;4979507;28;20551;-72
2021/04/10 08:03:40;;;;;;;3.23;3.00;;;11.90;99.90;;;;;;4985634;28;20513;-73
2021/04/10 08:06:05;;;;;;;3.90;3.57;;;11.90;99.90;;;;;;4983464;28;20452;-70
2021/04/10 08:08:57;;;;;;;3.40;3.10;;;12.00;99.90;;;;;;4981211;28;20904;-72
2021/04/10 08:11:38;;;;;;;3.50;3.20;;;12.10;99.90;;;;;;4967764;28;20210;-70
2021/04/10 08:14:09;;;;;;;4.63;3.07;;;12.10;99.90;;;;;;4980575;28;20441;-73
2021/04/10 08:16:53;;;;;;;3.43;3.13;;;12.20;99.90;;;;;;4980798;28;20498;-74
2021/04/10 08:19:30;;;;;;;4.47;3.90;;;12.10;99.90;;;;;;4980700;28;20461;-73
2021/04/10 08:21:56;;;;;;;3.33;3.13;;;12.10;99.90;;;;;;4981777;28;20475;-71
2021/04/10 08:24:26;;;;;;;3.67;3.37;;;12.20;99.90;;;;;;4970331;28;20511;-71
2021/04/10 08:26:58;;;;;;;3.20;3.00;;;12.20;99.90;;;;;;4982112;28;20686;-70
2021/04/10 08:29:24;;;;;;;4.47;3.37;;;12.30;99.90;;;;;;4978347;28;21242;-72
2021/04/10 08:31:51;;;;;;;3.47;3.17;;;12.30;99.90;;;;;;4977925;28;20856;-74
2021/04/10 08:34:17;;;;;;;3.63;3.33;;;12.40;99.90;;;;;;4979436;28;20867;-70
2021/04/10 08:36:46;;;;;;;3.47;3.17;;;12.30;99.90;;;;;;4985535;28;20462;-73
2021/04/10 08:39:14;;;;;;;5.53;3.60;;;12.20;99.90;;;;;;4975716;28;21234;-72
2021/04/10 08:41:41;;;;;;;3.57;3.30;;;12.30;99.90;;;;;;4987251;28;20952;-71
2021/04/10 08:44:09;;;;;;;3.40;3.10;;;12.30;99.90;;;;;;4985852;28;21213;-70
2021/04/10 08:46:37;;;;;;;7.17;3.73;;;12.40;99.90;;;;;;4987609;28;20425;-71
2021/04/10 08:49:05;;;;;;;3.00;2.80;;;12.30;99.90;;;;;;4984913;28;20479;-75
2021/04/10 08:51:33;;;;;;;2.80;2.50;;;12.30;99.90;;;;;;4981488;28;20464;-72
2021/04/10 08:54:01;;;;;;;4.43;3.10;;;12.30;99.90;;;;;;4986503;28;20535;-71
2021/04/10 08:56:28;;;;;;;3.27;3.07;;;12.30;99.90;;;;;;4984857;28;20540;-71
2021/04/10 08:59:15;;;;;;;3.90;3.60;;;12.20;99.90;;;;;;4984806;28;20483;-70
2021/04/10 09:01:42;;;;;;;3.67;3.37;;;12.30;99.90;;;;;;4983763;28;20657;-73
2021/04/10 09:04:10;;;;;;;4.30;3.27;;;12.30;99.90;;;;;;4975646;28;20452;-70
2021/04/10 09:06:38;;;;;;;3.73;3.43;;;12.30;99.90;;;;;;4986141;28;20848;-71
2021/04/10 09:09:17;;;;;;;3.27;2.70;;;12.30;99.90;;;;;;4982668;28;20432;-72
2021/04/10 09:11:46;;;;;;;2.70;2.50;;;12.30;99.90;;;;;;4984522;28;20515;-72
2021/04/10 09:14:34;;;;;;;3.80;3.50;;;12.30;99.90;;;;;;4984452;28;21000;-72
2021/04/10 09:17:00;;;;;;;3.20;2.90;;;12.40;99.90;;;;;;4966103;28;21081;-69
2021/04/10 09:19:27;;;;;;;3.20;2.87;;;12.40;99.90;;;;;;4983108;28;20459;-70
2021/04/10 09:21:59;;;;;;;3.50;2.90;;;12.40;99.90;;;;;;4985032;28;20758;-72
2021/04/10 09:24:44;;;;;;;3.00;2.80;;;12.40;99.90;;;;;;4979282;28;20524;-72
2021/04/10 09:27:25;;;;;;;4.13;3.07;;;12.40;99.90;;;;;;4989016;28;20416;-72
2021/04/10 09:29:58;;;;;;;3.17;2.97;;;12.30;99.90;;;;;;4974134;28;20443;-73
2021/04/10 09:32:44;;;;;;;3.63;3.33;;;12.30;99.90;;;;;;4983515;28;21039;-72
2021/04/10 09:35:17;;;;;;;7.10;3.70;;;12.20;99.90;;;;;;4983380;28;20482;-71
2021/04/10 09:37:43;;;;;;;3.43;3.20;;;12.20;99.90;;;;;;4989123;28;20521;-71
2021/04/10 09:40:23;;;;;;;3.10;2.90;;;12.20;99.90;;;;;;4982255;28;20472;-72
2021/04/10 09:42:51;;;;;;;4.77;3.30;;;12.50;99.90;;;;;;4964196;28;20214;-72
2021/04/10 09:45:30;;;;;;;3.10;2.90;;;12.50;99.90;;;;;;4984250;28;21381;-74
2021/04/10 09:47:56;;;;;;;2.97;2.77;;;12.40;99.90;;;;;;4981142;28;20440;-72
2021/04/10 09:50:25;;;;;;;3.07;2.87;;;12.40;99.90;;;;;;4979428;28;20474;-71
2021/04/10 09:52:53;;;;;;;3.50;3.20;;;12.30;99.90;;;;;;4984418;28;20454;-71
2021/04/10 09:55:21;;;;;;;3.30;3.00;;;12.30;99.90;;;;;;4981935;28;20482;-71
2021/04/10 09:57:56;;;;;;;3.73;3.43;;;12.40;99.90;;;;;;4978457;28;21450;-73
2021/04/10 10:00:28;;;;;;;3.13;2.93;;;12.50;99.90;;;;;;4975024;28;20472;-73
2021/04/10 10:02:55;;;;;;;3.27;2.97;;;12.50;99.90;;;;;;4985786;28;20801;-71
2021/04/10 10:05:22;;;;;;;3.20;3.00;;;12.60;99.90;;;;;;4984742;28;20869;-70
2021/04/10 10:07:48;;;;;;;3.17;2.87;;;12.60;99.90;;;;;;4979744;28;20495;-73
2021/04/10 10:10:14;;;;;;;3.23;3.03;;;12.50;99.90;;;;;;4974033;28;20475;-70
2021/04/10 10:12:40;;;;;;;2.97;2.77;;;12.50;99.90;;;;;;4963459;28;20938;-72
2021/04/10 10:15:19;;;;;;;3.00;2.80;;;12.50;99.90;;;;;;4970973;28;20449;-72
2021/04/10 10:17:45;;;;;;;3.03;2.83;;;12.60;99.90;;;;;;4979774;28;20423;-70
2021/04/10 10:20:13;;;;;;;2.93;2.73;;;12.60;99.90;;;;;;4978014;28;20456;-71
2021/04/10 10:22:40;;;;;;;3.20;3.00;;;12.70;99.90;;;;;;4982018;28;20303;-75
2021/04/10 10:25:07;;;;;;;2.97;2.63;;;12.70;99.90;;;;;;4979206;28;20452;-72
2021/04/10 10:27:47;;;;;;;3.00;2.80;;;12.70;99.90;;;;;;4983020;28;20955;-73
2021/04/10 10:30:14;;;;;;;5.13;4.73;;;12.80;99.90;;;;;;4980434;28;21131;-73
2021/04/10 10:32:44;;;;;;;3.10;2.90;;;12.70;99.90;;;;;;4980452;28;21008;-71
2021/04/10 10:35:10;;;;;;;3.10;2.90;;;12.90;99.90;;;;;;4977419;28;20546;-73
2021/04/10 10:37:36;;;;;;;3.27;3.07;;;13.00;99.90;;;;;;4973037;28;20438;-74
2021/04/10 10:40:02;;;;;;;3.60;3.40;;;13.00;99.90;;;;;;4967691;28;20484;-71
2021/04/10 10:42:28;;;;;;;3.60;3.20;;;13.00;99.90;;;;;;4982656;28;20273;-74
2021/04/10 10:44:53;;;;;;;2.63;2.53;;;13.00;99.90;;;;;;4981106;28;20440;-75
2021/04/10 10:47:23;;;;;;;3.17;2.90;;;13.10;99.90;;;;;;4978582;28;20248;-74
2021/04/10 10:49:51;;;;;;;3.03;2.83;;;13.20;99.90;;;;;;4968866;28;20684;-73
2021/04/10 10:52:19;;;;;;;3.40;3.20;;;13.20;99.90;;;;;;4978102;28;20468;-74
2021/04/10 10:54:49;;;;;;;5.50;3.00;;;13.20;99.90;;;;;;4980270;28;20991;-69
2021/04/10 10:57:17;;;;;;;3.20;2.90;;;13.30;99.90;;;;;;4977278;28;20440;-70
2021/04/10 10:59:44;;;;;;;3.60;3.10;;;13.30;99.90;;;;;;4969163;28;21195;-72
2021/04/10 11:02:11;;;;;;;2.70;2.50;;;13.40;99.90;;;;;;4984441;28;20453;-69
2021/04/10 11:04:39;;;;;;;3.10;2.90;;;13.50;99.90;;;;;;4981070;28;20449;-73
2021/04/10 11:07:09;;;;;;;3.20;2.90;;;13.70;99.90;;;;;;4982053;28;20995;-71
2021/04/10 11:09:41;;;;;;;3.20;3.00;;;13.80;99.90;;;;;;4980861;28;20452;-72
2021/04/10 11:12:12;;;;;;;3.30;2.40;;;13.90;99.90;;;;;;4966529;28;20494;-73
2021/04/10 11:14:42;;;;;;;3.00;2.80;;;13.90;99.90;;;;;;4982343;28;20905;-73
2021/04/10 11:17:09;;;;;;;2.60;2.40;;;14.00;99.90;;;;;;4984224;28;21311;-73
2021/04/10 11:19:36;;;;;;;2.93;2.73;;;14.10;99.90;;;;;;4985471;28;20518;-73
2021/04/10 11:22:04;;;;;;;3.40;3.20;;;14.30;99.90;;;;;;4984678;28;20456;-70
2021/04/10 11:24:42;;;;;;;3.00;2.80;;;14.60;99.90;;;;;;4981356;28;20421;-71
2021/04/10 11:27:20;;;;;;;3.00;2.80;;;14.90;99.90;;;;;;4976732;28;20445;-70
2021/04/10 11:29:59;;;;;;;3.20;2.90;;;15.30;99.90;;;;;;4979413;28;20429;-74
2021/04/10 11:32:45;;;;;;;3.00;2.80;;;15.90;99.90;;;;;;4980212;28;20623;-74
2021/04/10 11:35:15;;;;;;;3.90;2.77;;;17.20;99.90;;;;;;4983472;28;20425;-74
2021/04/10 11:37:53;;;;;;;3.50;2.97;;;20.00;99.90;;;;;;4970135;28;20518;-71
2021/04/10 11:40:24;;;;;;;3.87;3.27;;;22.40;85.30;;;;;;4983957;28;20482;-73
2021/04/10 11:42:52;;;;;;;3.97;3.10;;;22.30;72.40;;;;;;4984061;28;20455;-74
2021/04/10 11:45:37;;;;;;;3.90;3.13;;;22.20;66.60;;;;;;4980783;28;20429;-74
2021/04/10 11:48:17;;;;;;;3.47;3.27;;;21.00;63.50;;;;;;4978441;28;20471;-71
2021/04/10 11:50:48;;;;;;;2.87;2.67;;;21.40;61.10;;;;;;4978679;28;20447;-71
2021/04/10 11:53:20;;;;;;;3.20;3.00;;;22.10;58.00;;;;;;4983323;28;20524;-74
2021/04/10 11:55:47;;;;;;;4.57;4.17;;;22.30;56.30;;;;;;4981797;28;20425;-73
2021/04/10 11:58:13;;;;;;;3.50;3.30;;;21.60;55.40;;;;;;4982063;28;20472;-73
2021/04/10 12:00:39;;;;;;;4.57;2.90;;;21.40;55.80;;;;;;4967896;28;20590;-72
2021/04/10 12:03:15;;;;;;;3.07;2.87;;;21.90;55.70;;;;;;4978785;28;20433;-72
2021/04/10 12:05:42;;;;;;;3.27;2.97;;;22.10;54.00;;;;;;4983619;28;20443;-75
2021/04/10 12:08:12;;;;;;;3.70;3.00;;;21.90;54.10;;;;;;4980512;28;20475;-74
2021/04/10 12:10:41;;;;;;;3.63;3.33;;;21.80;54.10;;;;;;4969391;28;20459;-71
2021/04/10 12:13:07;;;;;;;3.47;3.27;;;21.70;54.50;;;;;;4988537;28;20421;-74
2021/04/10 12:15:35;;;;;;;3.13;2.90;;;21.50;54.40;;;;;;4985010;28;20463;-74
2021/04/10 12:18:02;;;;;;;3.40;3.10;;;21.60;53.80;;;;;;4984598;28;20459;-72
2021/04/10 12:20:28;;;;;;;3.90;3.60;;;20.80;54.70;;;;;;4982661;28;20471;-73
2021/04/10 12:22:54;;;;;;;3.10;2.90;;;20.00;55.80;;;;;;4979214;28;20468;-72
2021/04/10 12:25:20;;;;;;;3.77;3.20;;;19.50;56.10;;;;;;4980273;28;20247;-76
2021/04/10 12:27:45;;;;;;;3.33;3.03;;;19.10;56.80;;;;;;4986042;28;20549;-73
2021/04/10 12:30:12;;;;;;;6.17;3.20;;;18.80;57.30;;;;;;4985144;28;20440;-72
2021/04/10 12:32:38;;;;;;;3.00;2.80;;;18.60;56.60;;;;;;4986414;28;20266;-72
2021/04/10 12:35:04;;;;;;;3.23;3.03;;;18.20;57.60;;;;;;4972587;28;20460;-72
2021/04/10 12:37:30;;;;;;;3.33;3.13;;;17.90;56.60;;;;;;4988547;28;20194;-75
2021/04/10 12:39:55;;;;;;;3.10;2.90;;;17.60;56.50;;;;;;4981776;28;22015;-74
2021/04/10 12:42:22;;;;;;;3.40;3.20;;;17.40;56.60;;;;;;4984672;28;20267;-71
2021/04/10 12:44:48;;;;;;;3.67;3.47;;;17.30;56.60;;;;;;4982113;28;20532;-74
2021/04/10 12:47:15;;;;;;;3.50;3.30;;;17.30;56.60;;;;;;4978805;28;20490;-71
2021/04/10 12:49:41;;;;;;;3.40;3.20;;;17.10;56.70;;;;;;4984480;28;20183;-73
2021/04/10 12:52:07;;;;;;;3.47;3.27;;;17.00;56.40;;;;;;4985236;28;20578;-73
2021/04/10 12:54:32;;;;;;;3.30;3.10;;;16.90;56.80;;;;;;4984524;28;20248;-74
2021/04/10 12:56:58;;;;;;;4.60;3.50;;;17.00;57.40;;;;;;4971673;28;20213;-73